Main page
METAR-TAF:

METAR-TAF

Airports :

Mannheim City Airport

Mannheim, Germany

latitude: 49-28-21N, longitude: 008-30-56E, elevation: 100 m

Current weather observation

The report was made 4 hours and 35 minutes ago, at 19:50 UTC
Calm wind
Temperature 4°C
Humidity 87%
Pressure 1030 hPa
Visibility 10 km or more
no clouds below 1500 m and no cumulonimbus

METAR: EDFM 151950Z 00000KT CAVOK 04/02 Q1030

Time: 01:25 (00:25 UTC)

Forecast

The report was made 7 hours and 25 minutes ago, at 17:00 UTC
Forecast valid from 15 at 18 UTC to 15 at 21 UTC
Wind 3 kt from variable directions
Visibility 10 km or more
no clouds below 1500 m and no cumulonimbus

TAF: EDFM 151700Z 1518/1521 VRB03KT CAVOK

Weather observations and forecasts of more than 4000 airports (METAR and TAF reports).

The available stations are represented by yellow and red dots on the map.

Hover mouse over dot to see the name of the station.

Then click to see weather observations and forecasts.

To change the map : click on the green buttons with a black cross to zoom in, on the green button with a dash to zoom out, or on the green arrows for adjacent maps.


METAR-TAF: